createdAt,value
2018-09-18T00:02:13.506Z,7.00
2018-09-18T00:04:41.394Z,7.00
2018-09-18T00:07:09.070Z,6.75
2018-09-18T00:09:36.979Z,6.60
2018-09-18T00:12:04.689Z,6.40
2018-09-18T00:14:33.021Z,7.07
2018-09-18T00:17:00.923Z,6.50
2018-09-18T00:19:28.665Z,6.40
2018-09-18T00:24:23.629Z,7.00
2018-09-18T00:26:51.562Z,6.30
2018-09-18T00:31:46.408Z,6.20
2018-09-18T00:34:14.183Z,6.47
2018-09-18T00:36:41.848Z,6.40
2018-09-18T00:39:10.195Z,6.20
2018-09-18T00:41:37.927Z,6.20
2018-09-18T00:44:05.741Z,7.30
2018-09-18T00:46:33.733Z,6.83
2018-09-18T00:49:01.595Z,6.27
2018-09-18T00:51:29.453Z,6.57
2018-09-18T00:53:57.377Z,6.17
2018-09-18T00:56:25.062Z,6.23
2018-09-18T00:58:52.933Z,6.00
2018-09-18T01:01:20.750Z,6.73
2018-09-18T01:03:48.641Z,6.07
2018-09-18T01:06:17.311Z,6.10
2018-09-18T01:08:44.993Z,6.03
2018-09-18T01:11:13.361Z,6.05
2018-09-18T01:13:41.175Z,6.20
2018-09-18T01:16:08.950Z,5.87
2018-09-18T01:18:39.618Z,6.53
2018-09-18T01:21:07.953Z,6.57
2018-09-18T01:23:36.826Z,6.70
2018-09-18T01:26:10.757Z,6.57
2018-09-18T01:28:38.743Z,7.03
2018-09-18T01:31:06.597Z,7.33
2018-09-18T01:33:34.842Z,5.90
2018-09-18T01:36:03.018Z,5.97
2018-09-18T01:38:30.872Z,6.30
2018-09-18T01:40:58.953Z,5.75
2018-09-18T01:43:26.662Z,6.20
2018-09-18T01:45:54.537Z,6.23
2018-09-18T01:48:22.450Z,6.20
2018-09-18T01:53:17.667Z,6.13
2018-09-18T01:55:45.305Z,5.90
2018-09-18T01:58:12.978Z,6.70
2018-09-18T02:00:40.907Z,5.92
2018-09-18T02:03:08.729Z,6.40
2018-09-18T02:05:36.583Z,6.25
2018-09-18T02:08:04.311Z,6.13
2018-09-18T02:12:59.332Z,5.93
2018-09-18T02:15:27.456Z,6.20
2018-09-18T02:17:55.364Z,5.87
2018-09-18T02:20:23.037Z,6.05
2018-09-18T02:22:50.925Z,5.27
2018-09-18T02:25:18.727Z,5.50
2018-09-18T02:27:46.597Z,5.70
2018-09-18T02:30:14.418Z,5.80
2018-09-18T02:32:42.074Z,5.80
2018-09-18T02:35:10.320Z,6.30
2018-09-18T02:37:38.016Z,6.00
2018-09-18T02:40:06.308Z,5.87
2018-09-18T02:42:34.058Z,5.67
2018-09-18T02:45:01.865Z,5.80
2018-09-18T02:47:29.693Z,5.83
2018-09-18T02:49:57.481Z,5.57
2018-09-18T02:52:25.123Z,5.80
2018-09-18T02:54:53.056Z,6.20
2018-09-18T02:57:20.757Z,5.40
2018-09-18T02:59:48.570Z,5.57
2018-09-18T03:02:16.204Z,5.65
2018-09-18T03:04:43.929Z,5.80
2018-09-18T03:07:11.718Z,5.60
2018-09-18T03:09:39.543Z,5.23
2018-09-18T03:12:07.472Z,6.17
2018-09-18T03:14:35.305Z,4.83
2018-09-18T03:17:02.966Z,5.33
2018-09-18T03:21:58.518Z,5.37
2018-09-18T03:24:26.207Z,5.13
2018-09-18T03:26:53.754Z,5.60
2018-09-18T03:29:21.547Z,5.20
2018-09-18T03:31:49.209Z,5.17
2018-09-18T03:34:17.045Z,5.87
2018-09-18T03:36:44.891Z,4.67
2018-09-18T03:39:12.805Z,5.37
2018-09-18T03:41:40.681Z,5.13
2018-09-18T03:44:08.310Z,5.83
2018-09-18T03:46:35.956Z,5.87
2018-09-18T03:51:30.900Z,4.93
2018-09-18T03:53:58.697Z,5.57
2018-09-18T03:56:26.305Z,5.40
2018-09-18T03:58:53.985Z,5.12
2018-09-18T04:01:21.938Z,5.27
2018-09-18T04:03:49.799Z,5.00
2018-09-18T04:06:17.593Z,5.23
2018-09-18T04:08:45.589Z,5.20
2018-09-18T04:11:13.321Z,4.47
2018-09-18T04:13:41.207Z,5.53
2018-09-18T04:16:09.045Z,5.73
2018-09-18T04:18:36.878Z,5.10
2018-09-18T04:21:04.958Z,5.50
2018-09-18T04:23:33.033Z,5.13
2018-09-18T04:26:00.950Z,5.57
2018-09-18T04:30:56.334Z,4.83
2018-09-18T04:33:23.995Z,4.83
2018-09-18T04:38:19.159Z,5.17
2018-09-18T04:40:46.893Z,4.60
2018-09-18T04:43:14.636Z,5.07
2018-09-18T04:45:42.300Z,5.10
2018-09-18T04:48:10.191Z,4.87
2018-09-18T04:50:38.201Z,4.83
2018-09-18T04:53:05.942Z,5.00
2018-09-18T04:55:33.765Z,4.60
2018-09-18T04:58:01.693Z,4.57
2018-09-18T05:00:29.594Z,4.90
2018-09-18T05:02:57.451Z,5.13
2018-09-18T05:05:25.207Z,5.10
2018-09-18T05:07:53.167Z,4.70
2018-09-18T05:12:48.301Z,5.40
2018-09-18T05:17:43.441Z,5.28
2018-09-18T05:20:11.202Z,5.40
2018-09-18T05:22:38.997Z,4.50
2018-09-18T05:25:07.034Z,4.20
2018-09-18T05:27:34.978Z,4.75
2018-09-18T05:32:29.980Z,4.60
2018-09-18T05:34:57.930Z,4.62
2018-09-18T05:39:53.197Z,5.13
2018-09-18T05:42:21.190Z,5.62
2018-09-18T05:44:49.210Z,5.57
2018-09-18T05:47:16.945Z,5.43
2018-09-18T05:49:45.034Z,5.20
2018-09-18T05:52:12.910Z,5.37
2018-09-18T05:57:08.173Z,6.93
2018-09-18T05:59:35.977Z,5.40
2018-09-18T06:02:03.828Z,5.60
2018-09-18T06:04:31.785Z,4.92
2018-09-18T06:06:59.582Z,5.40
2018-09-18T06:09:27.576Z,4.65
2018-09-18T06:11:55.486Z,4.83
2018-09-18T06:14:23.446Z,5.03
2018-09-18T06:16:51.325Z,5.37
2018-09-18T06:19:19.113Z,5.23
2018-09-18T06:21:46.863Z,5.30
2018-09-18T06:24:14.821Z,5.47
2018-09-18T06:26:42.698Z,5.93
2018-09-18T06:29:10.575Z,5.63
2018-09-18T06:31:38.396Z,5.70
2018-09-18T06:34:06.178Z,6.28
2018-09-18T06:36:34.409Z,5.50
2018-09-18T06:39:02.306Z,5.93
2018-09-18T06:41:30.017Z,6.15
2018-09-18T06:43:57.945Z,6.70
2018-09-18T06:46:26.392Z,6.53
2018-09-18T06:48:54.351Z,6.97
2018-09-18T06:51:22.041Z,6.13
2018-09-18T06:53:49.914Z,6.77
2018-09-18T06:56:17.721Z,6.40
2018-09-18T06:58:45.538Z,6.60
2018-09-18T07:01:13.185Z,5.97
2018-09-18T07:03:41.054Z,6.33
2018-09-18T07:06:08.920Z,6.70
2018-09-18T07:11:03.762Z,6.57
2018-09-18T07:13:31.569Z,6.60
2018-09-18T07:15:59.481Z,7.17
2018-09-18T07:18:27.195Z,7.20
2018-09-18T07:20:55.457Z,7.50
2018-09-18T07:25:50.613Z,7.30
2018-09-18T07:28:18.557Z,6.90
2018-09-18T07:30:47.014Z,6.70
2018-09-18T07:33:15.018Z,6.90
2018-09-18T07:38:10.207Z,6.93
2018-09-18T07:40:37.951Z,7.33
2018-09-18T07:43:05.801Z,7.47
2018-09-18T07:45:33.613Z,6.87
2018-09-18T07:48:01.314Z,7.40
2018-09-18T07:50:29.218Z,6.90
2018-09-18T07:52:56.944Z,7.27
2018-09-18T07:55:24.850Z,6.90
2018-09-18T07:57:53.365Z,7.00
2018-09-18T08:00:21.048Z,7.47
2018-09-18T08:02:49.196Z,8.03
2018-09-18T08:05:16.888Z,7.77
2018-09-18T08:07:44.868Z,7.15
2018-09-18T08:10:12.962Z,7.90
2018-09-18T08:12:40.738Z,7.13
2018-09-18T08:15:08.651Z,7.60
2018-09-18T08:17:36.402Z,7.83
2018-09-18T08:20:04.065Z,7.60
2018-09-18T08:22:32.038Z,8.20
2018-09-18T08:24:59.814Z,8.00
2018-09-18T08:27:27.600Z,7.67
2018-09-18T08:29:55.522Z,8.03
2018-09-18T08:32:23.226Z,7.43
2018-09-18T08:34:51.014Z,7.53
2018-09-18T08:39:46.286Z,7.23
2018-09-18T08:44:41.212Z,7.87
2018-09-18T08:47:09.352Z,7.63
2018-09-18T08:49:37.618Z,7.17
2018-09-18T08:52:05.704Z,6.87
2018-09-18T08:54:33.228Z,7.47
2018-09-18T08:59:28.031Z,7.40
2018-09-18T09:01:55.771Z,7.27
2018-09-18T09:04:23.621Z,7.13
2018-09-18T09:06:51.576Z,7.10
2018-09-18T09:09:19.654Z,6.43
2018-09-18T09:14:14.993Z,6.90
2018-09-18T09:16:43.013Z,6.97
2018-09-18T09:21:38.810Z,6.80
2018-09-18T09:24:06.670Z,7.27
2018-09-18T09:26:34.603Z,6.90
2018-09-18T09:29:02.346Z,6.40
2018-09-18T09:31:32.671Z,6.80
2018-09-18T09:34:02.592Z,7.27
2018-09-18T09:36:31.694Z,6.83
2018-09-18T09:39:00.953Z,6.57
2018-09-18T09:41:30.638Z,7.17
2018-09-18T09:44:00.401Z,6.57
2018-09-18T09:46:29.948Z,6.20
2018-09-18T09:51:25.366Z,6.80
2018-09-18T09:53:53.065Z,7.00
2018-09-18T09:56:21.561Z,7.00
2018-09-18T09:58:49.314Z,6.40
2018-09-18T10:01:22.813Z,6.80
2018-09-18T10:03:50.756Z,7.10
2018-09-18T10:06:18.655Z,7.10
2018-09-18T10:08:46.478Z,7.27
2018-09-18T10:11:14.338Z,6.55
2018-09-18T10:13:42.088Z,6.60
2018-09-18T10:16:10.202Z,6.93
2018-09-18T10:18:38.345Z,6.55
2018-09-18T10:21:06.033Z,6.40
2018-09-18T10:23:33.853Z,6.93
2018-09-18T10:26:01.900Z,6.90
2018-09-18T10:28:29.689Z,6.13
2018-09-18T10:30:57.497Z,6.70
2018-09-18T10:33:25.367Z,6.50
2018-09-18T10:35:53.026Z,6.40
2018-09-18T10:38:20.776Z,6.92
2018-09-18T10:40:48.607Z,6.37
2018-09-18T10:43:16.401Z,6.60
2018-09-18T10:45:44.445Z,6.40
2018-09-18T10:48:12.220Z,6.03
2018-09-18T10:50:40.069Z,5.97
2018-09-18T10:53:07.982Z,6.05
2018-09-18T10:58:02.957Z,7.00
2018-09-18T11:00:30.873Z,6.63
2018-09-18T11:02:58.716Z,6.57
2018-09-18T11:05:26.561Z,6.22
2018-09-18T11:07:54.488Z,7.23
2018-09-18T11:10:22.117Z,6.40
2018-09-18T11:12:49.886Z,6.47
2018-09-18T11:15:17.923Z,6.50
2018-09-18T11:20:12.979Z,6.53
2018-09-18T11:22:40.690Z,6.70
2018-09-18T11:25:08.474Z,6.40
2018-09-18T11:27:36.227Z,6.30
2018-09-18T11:30:04.215Z,6.53
2018-09-18T11:32:31.947Z,6.40
2018-09-18T11:34:59.738Z,6.67
2018-09-18T11:37:27.654Z,6.40
2018-09-18T11:39:55.514Z,6.10
2018-09-18T11:42:23.551Z,5.83
2018-09-18T11:44:51.351Z,6.75
2018-09-18T11:47:19.202Z,6.13
2018-09-18T11:49:47.969Z,6.33
2018-09-18T11:54:43.773Z,6.20
2018-09-18T11:57:11.656Z,5.80
2018-09-18T11:59:39.507Z,6.10
2018-09-18T12:02:07.226Z,6.47
2018-09-18T12:04:35.196Z,6.30
2018-09-18T12:07:02.851Z,6.70
2018-09-18T12:09:30.667Z,6.70
2018-09-18T12:11:58.384Z,6.20
2018-09-18T12:14:26.192Z,6.08
2018-09-18T12:16:53.823Z,6.30
2018-09-18T12:21:48.925Z,6.00
2018-09-18T12:24:16.742Z,6.60
2018-09-18T12:29:11.678Z,6.40
2018-09-18T12:31:39.504Z,6.23
2018-09-18T12:34:07.340Z,5.87
2018-09-18T12:36:35.074Z,6.33
2018-09-18T12:39:04.617Z,6.10
2018-09-18T12:41:32.609Z,6.47
2018-09-18T12:46:27.405Z,6.60
2018-09-18T12:48:55.155Z,5.87
2018-09-18T12:51:22.985Z,6.45
2018-09-18T12:53:50.909Z,5.70
2018-09-18T12:56:18.617Z,5.80
2018-09-18T12:58:46.951Z,6.10
2018-09-18T13:03:43.203Z,6.17
2018-09-18T13:06:11.005Z,6.80
2018-09-18T13:08:38.652Z,6.17
2018-09-18T13:11:06.314Z,6.00
2018-09-18T13:13:34.933Z,6.28
2018-09-18T13:16:02.749Z,6.07
2018-09-18T13:18:30.637Z,5.72
2018-09-18T13:20:58.546Z,6.57
2018-09-18T13:23:26.473Z,6.45
2018-09-18T13:25:54.506Z,6.37
2018-09-18T13:28:22.330Z,6.27
2018-09-18T13:30:50.065Z,6.23
2018-09-18T13:33:17.885Z,6.20
2018-09-18T13:35:45.670Z,6.67
2018-09-18T13:38:13.569Z,6.53
2018-09-18T13:40:41.303Z,6.53
2018-09-18T13:43:09.006Z,6.90
2018-09-18T13:48:04.028Z,6.70
2018-09-18T13:52:58.771Z,6.60
2018-09-18T13:55:26.667Z,6.85
2018-09-18T14:00:21.631Z,7.50
2018-09-18T14:02:49.549Z,6.90
2018-09-18T14:05:17.209Z,7.47
2018-09-18T14:07:45.031Z,7.33
2018-09-18T14:10:14.348Z,7.17
2018-09-18T14:12:42.003Z,7.37
2018-09-18T14:15:09.703Z,6.92
2018-09-18T14:17:37.557Z,7.30
2018-09-18T14:20:05.872Z,6.60
2018-09-18T14:22:34.022Z,7.10
2018-09-18T14:25:16.697Z,7.83
2018-09-18T14:27:44.639Z,7.60
2018-09-18T14:30:12.446Z,7.73
2018-09-18T14:32:40.077Z,7.33
2018-09-18T14:35:07.909Z,7.17
2018-09-18T14:37:35.634Z,7.00
2018-09-18T14:42:30.789Z,7.30
2018-09-18T14:44:59.321Z,8.37
2018-09-18T14:47:26.981Z,7.87
2018-09-18T14:49:54.766Z,7.70
2018-09-18T14:52:22.547Z,6.77
2018-09-18T14:54:50.449Z,7.47
2018-09-18T14:57:18.213Z,7.47
2018-09-18T14:59:45.990Z,7.67
2018-09-18T15:02:13.680Z,7.03
2018-09-18T15:04:41.375Z,7.57
2018-09-18T15:07:09.086Z,7.17
2018-09-18T15:09:36.765Z,7.10
2018-09-18T15:14:34.207Z,7.62
2018-09-18T15:17:01.910Z,7.77
2018-09-18T15:19:29.752Z,6.67
2018-09-18T15:21:57.768Z,7.28
2018-09-18T15:24:25.578Z,7.57
2018-09-18T15:26:53.207Z,7.22
2018-09-18T15:29:21.050Z,7.03
2018-09-18T15:31:48.845Z,7.03
2018-09-18T15:34:16.613Z,7.40
2018-09-18T15:36:44.349Z,6.83
2018-09-18T15:39:11.999Z,7.20
2018-09-18T15:41:39.815Z,7.00
2018-09-18T15:44:07.909Z,6.77
2018-09-18T15:46:35.994Z,7.13
2018-09-18T15:49:03.769Z,7.65
2018-09-18T15:51:31.978Z,7.20
2018-09-18T15:53:59.919Z,6.97
2018-09-18T15:58:55.313Z,7.27
2018-09-18T16:01:23.142Z,6.85
2018-09-18T16:03:51.235Z,6.97
2018-09-18T16:06:18.917Z,7.20
2018-09-18T16:08:46.762Z,7.65
2018-09-18T16:11:14.631Z,7.63
2018-09-18T16:13:42.557Z,8.13
2018-09-18T16:18:30.057Z,6.95
2018-09-18T16:20:57.942Z,8.00
2018-09-18T16:23:25.681Z,7.80
2018-09-18T16:25:53.621Z,7.85
2018-09-18T16:28:21.598Z,7.47
2018-09-18T16:30:49.591Z,7.90
2018-09-18T16:33:17.482Z,8.30
2018-09-18T16:38:12.602Z,8.10
2018-09-18T16:43:14.313Z,9.10
2018-09-18T16:45:42.199Z,8.27
2018-09-18T16:48:10.064Z,8.93
2018-09-18T16:50:37.935Z,8.60
2018-09-18T16:53:05.673Z,8.08
2018-09-18T16:55:33.766Z,8.43
2018-09-18T16:58:02.069Z,8.37
2018-09-18T17:00:29.995Z,7.33
2018-09-18T17:02:57.665Z,7.97
2018-09-18T17:05:25.310Z,7.47
2018-09-18T17:07:53.027Z,6.83
2018-09-18T17:12:20.584Z,8.63
2018-09-18T17:14:48.207Z,8.70
2018-09-18T17:19:43.459Z,8.17
2018-09-18T17:22:11.048Z,6.87
2018-09-18T17:24:38.966Z,7.20
2018-09-18T17:27:06.763Z,7.13
2018-09-18T17:29:34.586Z,6.40
2018-09-18T17:32:02.570Z,6.67
2018-09-18T17:36:59.926Z,6.80
2018-09-18T17:39:27.767Z,6.67
2018-09-18T17:41:55.703Z,6.03
2018-09-18T17:44:23.749Z,6.07
2018-09-18T17:46:51.629Z,6.03
2018-09-18T17:49:19.302Z,5.83
2018-09-18T17:51:47.201Z,5.90
2018-09-18T17:54:15.197Z,6.03
2018-09-18T17:56:43.060Z,6.58
2018-09-18T17:59:11.213Z,6.57
2018-09-18T18:04:06.474Z,6.13
2018-09-18T18:08:59.178Z,5.90
2018-09-18T18:11:27.333Z,5.80
2018-09-18T18:13:55.343Z,5.97
2018-09-18T18:16:23.197Z,5.37
2018-09-18T18:18:50.993Z,5.75
2018-09-18T18:23:46.374Z,5.40
2018-09-18T18:26:14.453Z,5.93
2018-09-18T18:28:42.209Z,5.93
2018-09-18T18:31:10.402Z,5.40
2018-09-18T18:33:38.204Z,5.80
2018-09-18T18:36:06.321Z,5.33
2018-09-18T18:38:34.199Z,5.57
2018-09-18T18:43:29.739Z,5.30
2018-09-18T18:48:25.029Z,5.67
2018-09-18T18:50:53.201Z,6.22
2018-09-18T18:53:21.210Z,5.47
2018-09-18T18:55:49.313Z,5.83
2018-09-18T18:58:17.223Z,5.80
2018-09-18T19:00:45.201Z,5.60
2018-09-18T19:04:12.773Z,6.25
2018-09-18T19:06:40.701Z,6.20
2018-09-18T19:09:08.521Z,5.50
2018-09-18T19:11:40.215Z,5.50
2018-09-18T19:14:08.108Z,5.33
2018-09-18T19:16:35.974Z,5.70
2018-09-18T19:19:05.597Z,5.60
2018-09-18T19:24:01.186Z,5.30
2018-09-18T19:26:29.301Z,5.50
2018-09-18T19:28:57.017Z,6.23
2018-09-18T19:33:52.339Z,5.20
2018-09-18T19:36:20.086Z,4.70
2018-09-18T19:38:47.852Z,5.27
2018-09-18T19:41:15.672Z,4.90
2018-09-18T19:43:45.433Z,5.47
2018-09-18T19:46:13.467Z,5.27
2018-09-18T19:48:41.536Z,5.20
2018-09-18T19:51:10.520Z,5.37
2018-09-18T19:53:38.648Z,5.10
2018-09-18T19:56:06.663Z,5.25
2018-09-18T19:58:34.480Z,4.80
2018-09-18T20:01:02.340Z,5.45
2018-09-18T20:03:30.205Z,4.70
2018-09-18T20:05:58.177Z,4.70
2018-09-18T20:08:26.014Z,4.37
2018-09-18T20:10:53.785Z,4.63
2018-09-18T20:13:21.943Z,4.80
2018-09-18T20:18:16.962Z,5.00
2018-09-18T20:20:46.543Z,4.60
2018-09-18T20:23:14.189Z,4.33
2018-09-18T20:25:42.472Z,4.35
2018-09-18T20:28:10.203Z,4.40
2018-09-18T20:30:37.929Z,4.92
2018-09-18T20:35:33.533Z,4.55
2018-09-18T20:38:01.392Z,4.50
2018-09-18T20:40:29.306Z,4.70
2018-09-18T20:42:57.009Z,4.50
2018-09-18T20:45:24.774Z,4.63
2018-09-18T20:47:52.659Z,4.50
2018-09-18T20:50:22.571Z,4.47
2018-09-18T20:52:51.965Z,4.50
2018-09-18T20:57:47.349Z,4.08
2018-09-18T21:00:16.337Z,4.50
2018-09-18T21:02:44.021Z,3.77
2018-09-18T21:05:11.927Z,4.80
2018-09-18T21:07:39.670Z,4.90
2018-09-18T21:10:07.589Z,4.20
2018-09-18T21:12:35.430Z,4.13
2018-09-18T21:15:03.536Z,4.42
2018-09-18T21:17:31.300Z,4.27
2018-09-18T21:19:59.060Z,4.00
2018-09-18T21:22:26.869Z,4.10
2018-09-18T21:25:15.855Z,3.42
2018-09-18T21:27:44.675Z,5.10
2018-09-18T21:30:13.280Z,4.10
2018-09-18T21:32:41.222Z,4.33
2018-09-18T21:35:09.013Z,4.23
2018-09-18T21:37:37.013Z,4.20
2018-09-18T21:40:04.963Z,4.20
2018-09-18T21:45:00.358Z,3.87
2018-09-18T21:48:10.186Z,3.25
2018-09-18T21:50:38.855Z,4.00
2018-09-18T21:53:10.433Z,3.50
2018-09-18T21:55:38.172Z,4.00
2018-09-18T21:58:06.073Z,3.60
2018-09-18T22:00:33.888Z,3.67
2018-09-18T22:03:02.043Z,3.50
2018-09-18T22:05:30.895Z,4.10
2018-09-18T22:07:59.932Z,3.57
2018-09-18T22:10:28.065Z,3.55
2018-09-18T22:12:56.303Z,4.13
2018-09-18T22:15:24.049Z,3.57
2018-09-18T22:17:51.860Z,3.90
2018-09-18T22:20:19.975Z,3.60
2018-09-18T22:27:10.729Z,3.95
2018-09-18T22:29:38.658Z,3.63
2018-09-18T22:32:06.612Z,3.63
2018-09-18T22:34:34.438Z,3.60
2018-09-18T22:37:02.521Z,3.20
2018-09-18T22:39:30.217Z,4.17
2018-09-18T22:41:58.057Z,3.60
2018-09-18T22:44:26.180Z,3.60
2018-09-18T22:46:53.929Z,3.47
2018-09-18T22:49:21.711Z,3.67
2018-09-18T22:51:49.621Z,3.30
2018-09-18T22:54:17.325Z,3.40
2018-09-18T22:56:45.021Z,3.23
2018-09-18T23:01:40.197Z,3.27
2018-09-18T23:04:07.763Z,3.50
2018-09-18T23:06:35.577Z,3.63
2018-09-18T23:09:04.410Z,3.45
2018-09-18T23:11:32.065Z,3.10
2018-09-18T23:13:59.885Z,3.80
2018-09-18T23:16:27.729Z,3.20
2018-09-18T23:23:50.194Z,3.20
2018-09-18T23:26:17.946Z,3.90
2018-09-18T23:31:13.270Z,3.23
2018-09-18T23:33:41.167Z,3.30
2018-09-18T23:36:09.357Z,3.00
2018-09-18T23:38:37.782Z,3.30
2018-09-18T23:41:05.686Z,3.43
2018-09-18T23:43:33.623Z,3.33
2018-09-18T23:46:01.596Z,3.30
2018-09-18T23:48:29.483Z,3.50
2018-09-18T23:50:57.204Z,3.20
2018-09-18T23:53:24.951Z,3.40
2018-09-18T23:55:52.764Z,3.70
2018-09-18T23:58:20.745Z,3.40
